PWSweather.com
Personal Weather Stations
Station Observations
KMIEASTT1
Tawas Bay, East Tawas, MI 48730

Tawas BayEast Tawas, MI 48730

Lat: 44.28, Lon: -83.48

Elevation: 600

Station Type: Davis VantagePro

http://www.tawasbayweather.com

High Low Average
Temperature 14.3°F-9.8°C 1.7°F-16.8°C 7.7°F-13.5°C
Dew Point 7.7°F-13.5°C -1.9°F-18.8°C 2.3°F-16.5°C
Winds 9.0 mph 14.5 kmh 1.0 mph 1.6 kmh 4.0 mph W6.4 kmh W
Wind Gusts 11.0 mph17.7 kmh 3.0 mph4.8 kmh 7.0 mph11.3 kmh
Humidity 86% 69% 78%
Pressure 30.33 in1027.1 mb 30.16 in1021.3 mb -
Precipitation 0.00 in0.0 mm - -
Hour Temp Dew Point Humidity Winds Wind Gusts Pressure Precip Precip Rate Daily Precip Total
12:01 AM 6.5°F-14.2°C 2.2°F-16.6°C 82% 3.0 mph W4.8 kmh W 7.0 mph11.3 kmh 30.13 in1020.3 mb 0.00 in0.0 mm 0.00 in/hr0.0 mm/hr 0.00 in0.0 mm
12:16 AM 6.3°F-14.3°C 2.0°F-16.7°C 82% 2.0 mph W3.2 kmh W 6.0 mph9.7 kmh 30.14 in1020.7 mb 0.00 in0.0 mm 0.00 in/hr0.0 mm/hr 0.00 in0.0 mm
12:30 AM 6.0°F-14.4°C 1.7°F-16.8°C 82% 4.0 mph W6.4 kmh W 6.0 mph9.7 kmh 30.15 in1021.0 mb 0.00 in0.0 mm 0.00 in/hr0.0 mm/hr 0.00 in0.0 mm
12:46 AM 5.9°F-14.5°C 1.9°F-16.7°C 83% 3.0 mph W4.8 kmh W 7.0 mph11.3 kmh 30.16 in1021.3 mb 0.00 in0.0 mm 0.00 in/hr0.0 mm/hr 0.00 in0.0 mm
01:01 AM 5.7°F-14.6°C 1.7°F-16.8°C 83% 4.0 mph W6.4 kmh W 4.0 mph6.4 kmh 30.16 in1021.3 mb 0.00 in0.0 mm 0.00 in/hr0.0 mm/hr 0.00 in0.0 mm
01:15 AM 5.2°F-14.9°C 1.2°F-17.1°C 83% 3.0 mph WNW4.8 kmh WNW 6.0 mph9.7 kmh 30.17 in1021.7 mb 0.00 in0.0 mm 0.00 in/hr0.0 mm/hr 0.00 in0.0 mm
01:31 AM 5.0°F-15.0°C 1.0°F-17.2°C 83% 4.0 mph NW6.4 kmh NW 7.0 mph11.3 kmh 30.17 in1021.7 mb 0.00 in0.0 mm 0.00 in/hr0.0 mm/hr 0.00 in0.0 mm
01:45 AM 4.9°F-15.1°C 0.9°F-17.3°C 83% 4.0 mph W6.4 kmh W 8.0 mph12.9 kmh 30.18 in1022.0 mb 0.00 in0.0 mm 0.00 in/hr0.0 mm/hr 0.00 in0.0 mm
02:01 AM 4.5°F-15.3°C 0.5°F-17.5°C 83% 4.0 mph W6.4 kmh W 7.0 mph11.3 kmh 30.18 in1022.0 mb 0.00 in0.0 mm 0.00 in/hr0.0 mm/hr 0.00 in0.0 mm
02:16 AM 4.2°F-15.4°C 0.2°F-17.7°C 83% 5.0 mph NW8.0 kmh NW 5.0 mph8.0 kmh 30.19 in1022.4 mb 0.00 in0.0 mm 0.00 in/hr0.0 mm/hr 0.00 in0.0 mm
02:30 AM 3.8°F-15.7°C 0.1°F-17.7°C 84% 4.0 mph W6.4 kmh W 6.0 mph9.7 kmh 30.19 in1022.4 mb 0.00 in0.0 mm 0.00 in/hr0.0 mm/hr 0.00 in0.0 mm
02:45 AM 3.8°F-15.7°C 0.1°F-17.7°C 84% 4.0 mph WNW6.4 kmh WNW 5.0 mph8.0 kmh 30.20 in1022.7 mb 0.00 in0.0 mm 0.00 in/hr0.0 mm/hr 0.00 in0.0 mm
03:01 AM 3.8°F-15.7°C 0.3°F-17.6°C 85% 3.0 mph WNW4.8 kmh WNW 7.0 mph11.3 kmh 30.20 in1022.7 mb 0.00 in0.0 mm 0.00 in/hr0.0 mm/hr 0.00 in0.0 mm
03:15 AM 3.4°F-15.9°C -0.1°F-17.8°C 85% 5.0 mph NW8.0 kmh NW 7.0 mph11.3 kmh 30.21 in1023.0 mb 0.00 in0.0 mm 0.00 in/hr0.0 mm/hr 0.00 in0.0 mm
03:30 AM 3.1°F-16.1°C -0.4°F-18.0°C 85% 7.0 mph W11.3 kmh W 7.0 mph11.3 kmh 30.21 in1023.0 mb 0.00 in0.0 mm 0.00 in/hr0.0 mm/hr 0.00 in0.0 mm
03:46 AM 3.0°F-16.1°C -0.5°F-18.1°C 85% 2.0 mph NW3.2 kmh NW 6.0 mph9.7 kmh 30.22 in1023.4 mb 0.00 in0.0 mm 0.00 in/hr0.0 mm/hr 0.00 in0.0 mm
04:01 AM 2.8°F-16.2°C -0.4°F-18.0°C 86% 8.0 mph WNW12.9 kmh WNW 8.0 mph12.9 kmh 30.23 in1023.7 mb 0.00 in0.0 mm 0.00 in/hr0.0 mm/hr 0.00 in0.0 mm
04:15 AM 2.8°F-16.2°C -0.4°F-18.0°C 86% 4.0 mph WNW6.4 kmh WNW 5.0 mph8.0 kmh 30.23 in1023.7 mb 0.00 in0.0 mm 0.00 in/hr0.0 mm/hr 0.00 in0.0 mm
04:31 AM 2.8°F-16.2°C -0.7°F-18.2°C 85% 4.0 mph WNW6.4 kmh WNW 6.0 mph9.7 kmh 30.24 in1024.0 mb 0.00 in0.0 mm 0.00 in/hr0.0 mm/hr 0.00 in0.0 mm
04:45 AM 2.5°F-16.4°C -0.7°F-18.2°C 86% 4.0 mph WNW6.4 kmh WNW 8.0 mph12.9 kmh 30.24 in1024.0 mb 0.00 in0.0 mm 0.00 in/hr0.0 mm/hr 0.00 in0.0 mm
05:01 AM 2.6°F-16.3°C -0.6°F-18.1°C 86% 5.0 mph NW8.0 kmh NW 9.0 mph14.5 kmh 30.25 in1024.4 mb 0.00 in0.0 mm 0.00 in/hr0.0 mm/hr 0.00 in0.0 mm
05:15 AM 2.4°F-16.4°C -1.1°F-18.4°C 85% 5.0 mph NW8.0 kmh NW 9.0 mph14.5 kmh 30.25 in1024.4 mb 0.00 in0.0 mm 0.00 in/hr0.0 mm/hr 0.00 in0.0 mm
05:31 AM 2.3°F-16.5°C -1.2°F-18.4°C 85% 5.0 mph NW8.0 kmh NW 8.0 mph12.9 kmh 30.25 in1024.4 mb 0.00 in0.0 mm 0.00 in/hr0.0 mm/hr 0.00 in0.0 mm
05:45 AM 2.2°F-16.6°C -1.3°F-18.5°C 85% 4.0 mph NW6.4 kmh NW 6.0 mph9.7 kmh 30.25 in1024.4 mb 0.00 in0.0 mm 0.00 in/hr0.0 mm/hr 0.00 in0.0 mm
06:01 AM 1.9°F-16.7°C -1.6°F-18.7°C 85% 4.0 mph W6.4 kmh W 8.0 mph12.9 kmh 30.25 in1024.4 mb 0.00 in0.0 mm 0.00 in/hr0.0 mm/hr 0.00 in0.0 mm
06:16 AM 1.8°F-16.8°C -1.7°F-18.7°C 85% 3.0 mph NW4.8 kmh NW 9.0 mph14.5 kmh 30.25 in1024.4 mb 0.00 in0.0 mm 0.00 in/hr0.0 mm/hr 0.00 in0.0 mm
06:30 AM 1.7°F-16.8°C -1.8°F-18.8°C 85% 5.0 mph WNW8.0 kmh WNW 6.0 mph9.7 kmh 30.25 in1024.4 mb 0.00 in0.0 mm 0.00 in/hr0.0 mm/hr 0.00 in0.0 mm
06:45 AM 1.8°F-16.8°C -1.9°F-18.8°C 84% 3.0 mph NW4.8 kmh NW 8.0 mph12.9 kmh 30.26 in1024.7 mb 0.00 in0.0 mm 0.00 in/hr0.0 mm/hr 0.00 in0.0 mm
07:01 AM 1.9°F-16.7°C -1.8°F-18.8°C 84% 5.0 mph WNW8.0 kmh WNW 7.0 mph11.3 kmh 30.26 in1024.7 mb 0.00 in0.0 mm 0.00 in/hr0.0 mm/hr 0.00 in0.0 mm
07:16 AM 2.1°F-16.6°C -1.9°F-18.8°C 83% 3.0 mph WNW4.8 kmh WNW 7.0 mph11.3 kmh 30.26 in1024.7 mb 0.00 in0.0 mm 0.00 in/hr0.0 mm/hr 0.00 in0.0 mm
07:30 AM 2.4°F-16.4°C -1.6°F-18.7°C 83% 3.0 mph NW4.8 kmh NW 6.0 mph9.7 kmh 30.26 in1024.7 mb 0.00 in0.0 mm 0.00 in/hr0.0 mm/hr 0.00 in0.0 mm
07:46 AM 2.5°F-16.4°C -1.7°F-18.7°C 82% 4.0 mph WNW6.4 kmh WNW 7.0 mph11.3 kmh 30.25 in1024.4 mb 0.00 in0.0 mm 0.00 in/hr0.0 mm/hr 0.00 in0.0 mm
08:01 AM 2.6°F-16.3°C -1.6°F-18.7°C 82% 3.0 mph NW4.8 kmh NW 6.0 mph9.7 kmh 30.24 in1024.0 mb 0.00 in0.0 mm 0.00 in/hr0.0 mm/hr 0.00 in0.0 mm
08:15 AM 2.7°F-16.3°C -1.5°F-18.6°C 82% 4.0 mph NW6.4 kmh NW 6.0 mph9.7 kmh 30.24 in1024.0 mb 0.00 in0.0 mm 0.00 in/hr0.0 mm/hr 0.00 in0.0 mm
08:31 AM 2.8°F-16.2°C -1.4°F-18.6°C 82% 5.0 mph WNW8.0 kmh WNW 6.0 mph9.7 kmh 30.24 in1024.0 mb 0.00 in0.0 mm 0.00 in/hr0.0 mm/hr 0.00 in0.0 mm
08:45 AM 3.1°F-16.1°C -1.1°F-18.4°C 82% 3.0 mph WNW4.8 kmh WNW 6.0 mph9.7 kmh 30.25 in1024.4 mb 0.00 in0.0 mm 0.00 in/hr0.0 mm/hr 0.00 in0.0 mm
09:01 AM 3.3°F-15.9°C -1.0°F-18.3°C 82% 4.0 mph WNW6.4 kmh WNW 5.0 mph8.0 kmh 30.26 in1024.7 mb 0.00 in0.0 mm 0.00 in/hr0.0 mm/hr 0.00 in0.0 mm
09:15 AM 3.7°F-15.7°C -0.3°F-17.9°C 83% 2.0 mph W3.2 kmh W 5.0 mph8.0 kmh 30.28 in1025.4 mb 0.00 in0.0 mm 0.00 in/hr0.0 mm/hr 0.00 in0.0 mm
09:31 AM 4.2°F-15.4°C 0.2°F-17.7°C 83% 7.0 mph WSW11.3 kmh WSW 9.0 mph14.5 kmh 30.29 in1025.7 mb 0.00 in0.0 mm 0.00 in/hr0.0 mm/hr 0.00 in0.0 mm
09:45 AM 4.7°F-15.2°C 0.7°F-17.4°C 83% 6.0 mph WSW9.7 kmh WSW 10.0 mph16.1 kmh 30.30 in1026.1 mb 0.00 in0.0 mm 0.00 in/hr0.0 mm/hr 0.00 in0.0 mm
10:01 AM 5.4°F-14.8°C 1.4°F-17.0°C 83% 4.0 mph WNW6.4 kmh WNW 8.0 mph12.9 kmh 30.31 in1026.4 mb 0.00 in0.0 mm 0.00 in/hr0.0 mm/hr 0.00 in0.0 mm
10:16 AM 5.4°F-14.8°C 1.1°F-17.2°C 82% 5.0 mph W8.0 kmh W 8.0 mph12.9 kmh 30.31 in1026.4 mb 0.00 in0.0 mm 0.00 in/hr0.0 mm/hr 0.00 in0.0 mm
10:31 AM 6.3°F-14.3°C 1.7°F-16.8°C 81% 3.0 mph W4.8 kmh W 8.0 mph12.9 kmh 30.31 in1026.4 mb 0.00 in0.0 mm 0.00 in/hr0.0 mm/hr 0.00 in0.0 mm
10:46 AM 7.4°F-13.7°C 2.5°F-16.4°C 80% 5.0 mph W8.0 kmh W 7.0 mph11.3 kmh 30.32 in1026.8 mb 0.00 in0.0 mm 0.00 in/hr0.0 mm/hr 0.00 in0.0 mm
11:02 AM 8.0°F-13.3°C 2.9°F-16.2°C 79% 3.0 mph WSW4.8 kmh WSW 9.0 mph14.5 kmh 30.33 in1027.1 mb 0.00 in0.0 mm 0.00 in/hr0.0 mm/hr 0.00 in0.0 mm
11:16 AM 8.7°F-12.9°C 3.5°F-15.8°C 79% 4.0 mph NW6.4 kmh NW 9.0 mph14.5 kmh 30.32 in1026.8 mb 0.00 in0.0 mm 0.00 in/hr0.0 mm/hr 0.00 in0.0 mm
11:31 AM 9.4°F-12.6°C 3.7°F-15.7°C 77% 4.0 mph W6.4 kmh W 7.0 mph11.3 kmh 30.32 in1026.8 mb 0.00 in0.0 mm 0.00 in/hr0.0 mm/hr 0.00 in0.0 mm
11:46 AM 10.1°F-12.2°C 4.3°F-15.4°C 77% 3.0 mph WSW4.8 kmh WSW 7.0 mph11.3 kmh 30.31 in1026.4 mb 0.00 in0.0 mm 0.00 in/hr0.0 mm/hr 0.00 in0.0 mm
12:01 PM 11.1°F-11.6°C 4.7°F-15.2°C 75% 3.0 mph WSW4.8 kmh WSW 8.0 mph12.9 kmh 30.32 in1026.8 mb 0.00 in0.0 mm 0.00 in/hr0.0 mm/hr 0.00 in0.0 mm
12:16 PM 11.0°F-11.7°C 4.4°F-15.3°C 74% 5.0 mph WSW8.0 kmh WSW 9.0 mph14.5 kmh 30.32 in1026.8 mb 0.00 in0.0 mm 0.00 in/hr0.0 mm/hr 0.00 in0.0 mm
12:30 PM 11.8°F-11.2°C 4.2°F-15.4°C 71% 4.0 mph W6.4 kmh W 10.0 mph16.1 kmh 30.31 in1026.4 mb 0.00 in0.0 mm 0.00 in/hr0.0 mm/hr 0.00 in0.0 mm
12:46 PM 12.2°F-11.0°C 4.0°F-15.6°C 69% 6.0 mph NW9.7 kmh NW 9.0 mph14.5 kmh 30.31 in1026.4 mb 0.00 in0.0 mm 0.00 in/hr0.0 mm/hr 0.00 in0.0 mm
01:01 PM 12.1°F-11.1°C 4.5°F-15.3°C 71% 7.0 mph W11.3 kmh W 9.0 mph14.5 kmh 30.30 in1026.1 mb 0.00 in0.0 mm 0.00 in/hr0.0 mm/hr 0.00 in0.0 mm
01:15 PM 12.5°F-10.8°C 4.9°F-15.1°C 71% 5.0 mph SW8.0 kmh SW 11.0 mph17.7 kmh 30.29 in1025.7 mb 0.00 in0.0 mm 0.00 in/hr0.0 mm/hr 0.00 in0.0 mm
01:31 PM 12.4°F-10.9°C 4.5°F-15.3°C 70% 7.0 mph SW11.3 kmh SW 9.0 mph14.5 kmh 30.29 in1025.7 mb 0.00 in0.0 mm 0.00 in/hr0.0 mm/hr 0.00 in0.0 mm
01:46 PM 12.5°F-10.8°C 4.6°F-15.2°C 70% 8.0 mph SW12.9 kmh SW 11.0 mph17.7 kmh 30.28 in1025.4 mb 0.00 in0.0 mm 0.00 in/hr0.0 mm/hr 0.00 in0.0 mm
02:02 PM 12.2°F-11.0°C 4.3°F-15.4°C 70% 4.0 mph W6.4 kmh W 10.0 mph16.1 kmh 30.27 in1025.1 mb 0.00 in0.0 mm 0.00 in/hr0.0 mm/hr 0.00 in0.0 mm
02:16 PM 12.4°F-10.9°C 4.2°F-15.4°C 69% 7.0 mph WSW11.3 kmh WSW 9.0 mph14.5 kmh 30.26 in1024.7 mb 0.00 in0.0 mm 0.00 in/hr0.0 mm/hr 0.00 in0.0 mm
02:31 PM 12.7°F-10.7°C 4.5°F-15.3°C 69% 5.0 mph WSW8.0 kmh WSW 7.0 mph11.3 kmh 30.25 in1024.4 mb 0.00 in0.0 mm 0.00 in/hr0.0 mm/hr 0.00 in0.0 mm
02:46 PM 12.5°F-10.8°C 4.3°F-15.4°C 69% 6.0 mph WSW9.7 kmh WSW 10.0 mph16.1 kmh 30.25 in1024.4 mb 0.00 in0.0 mm 0.00 in/hr0.0 mm/hr 0.00 in0.0 mm
03:01 PM 12.8°F-10.7°C 5.2°F-14.9°C 71% 8.0 mph WSW12.9 kmh WSW 10.0 mph16.1 kmh 30.25 in1024.4 mb 0.00 in0.0 mm 0.00 in/hr0.0 mm/hr 0.00 in0.0 mm
03:15 PM 13.0°F-10.6°C 5.1°F-14.9°C 70% 3.0 mph W4.8 kmh W 7.0 mph11.3 kmh 30.24 in1024.0 mb 0.00 in0.0 mm 0.00 in/hr0.0 mm/hr 0.00 in0.0 mm
03:31 PM 13.0°F-10.6°C 5.7°F-14.6°C 72% 6.0 mph WSW9.7 kmh WSW 11.0 mph17.7 kmh 30.24 in1024.0 mb 0.00 in0.0 mm 0.00 in/hr0.0 mm/hr 0.00 in0.0 mm
03:45 PM 13.2°F-10.4°C 5.6°F-14.7°C 71% 4.0 mph WSW6.4 kmh WSW 10.0 mph16.1 kmh 30.25 in1024.4 mb 0.00 in0.0 mm 0.00 in/hr0.0 mm/hr 0.00 in0.0 mm
04:02 PM 13.4°F-10.3°C 5.8°F-14.6°C 71% 3.0 mph NW4.8 kmh NW 8.0 mph12.9 kmh 30.25 in1024.4 mb 0.00 in0.0 mm 0.00 in/hr0.0 mm/hr 0.00 in0.0 mm
04:16 PM 13.5°F-10.3°C 5.9°F-14.5°C 71% 5.0 mph WSW8.0 kmh WSW 6.0 mph9.7 kmh 30.26 in1024.7 mb 0.00 in0.0 mm 0.00 in/hr0.0 mm/hr 0.00 in0.0 mm
04:31 PM 13.7°F-10.2°C 5.8°F-14.6°C 70% 3.0 mph NW4.8 kmh NW 7.0 mph11.3 kmh 30.26 in1024.7 mb 0.00 in0.0 mm 0.00 in/hr0.0 mm/hr 0.00 in0.0 mm
04:46 PM 13.8°F-10.1°C 5.5°F-14.7°C 69% 2.0 mph WSW3.2 kmh WSW 4.0 mph6.4 kmh 30.25 in1024.4 mb 0.00 in0.0 mm 0.00 in/hr0.0 mm/hr 0.00 in0.0 mm
05:02 PM 13.8°F-10.1°C 5.8°F-14.6°C 70% 3.0 mph NW4.8 kmh NW 5.0 mph8.0 kmh 30.25 in1024.4 mb 0.00 in0.0 mm 0.00 in/hr0.0 mm/hr 0.00 in0.0 mm
05:16 PM 13.9°F-10.1°C 6.3°F-14.3°C 71% 1.0 mph WNW1.6 kmh WNW 3.0 mph4.8 kmh 30.26 in1024.7 mb 0.00 in0.0 mm 0.00 in/hr0.0 mm/hr 0.00 in0.0 mm
05:31 PM 13.9°F-10.1°C 6.3°F-14.3°C 71% 2.0 mph NW3.2 kmh NW 5.0 mph8.0 kmh 30.26 in1024.7 mb 0.00 in0.0 mm 0.00 in/hr0.0 mm/hr 0.00 in0.0 mm
05:46 PM 13.9°F-10.1°C 6.3°F-14.3°C 71% 3.0 mph WNW4.8 kmh WNW 5.0 mph8.0 kmh 30.27 in1025.1 mb 0.00 in0.0 mm 0.00 in/hr0.0 mm/hr 0.00 in0.0 mm
06:02 PM 13.7°F-10.2°C 5.8°F-14.6°C 70% 4.0 mph NW6.4 kmh NW 5.0 mph8.0 kmh 30.27 in1025.1 mb 0.00 in0.0 mm 0.00 in/hr0.0 mm/hr 0.00 in0.0 mm
06:16 PM 13.9°F-10.1°C 6.3°F-14.3°C 71% 6.0 mph WSW9.7 kmh WSW 7.0 mph11.3 kmh 30.29 in1025.7 mb 0.00 in0.0 mm 0.00 in/hr0.0 mm/hr 0.00 in0.0 mm
06:31 PM 14.0°F-10.0°C 6.7°F-14.1°C 72% 4.0 mph WSW6.4 kmh WSW 6.0 mph9.7 kmh 30.29 in1025.7 mb 0.00 in0.0 mm 0.00 in/hr0.0 mm/hr 0.00 in0.0 mm
06:46 PM 14.1°F-9.9°C 6.8°F-14.0°C 72% 2.0 mph WSW3.2 kmh WSW 6.0 mph9.7 kmh 30.29 in1025.7 mb 0.00 in0.0 mm 0.00 in/hr0.0 mm/hr 0.00 in0.0 mm
07:01 PM 14.3°F-9.8°C 7.6°F-13.6°C 74% 3.0 mph W4.8 kmh W 6.0 mph9.7 kmh 30.29 in1025.7 mb 0.00 in0.0 mm 0.00 in/hr0.0 mm/hr 0.00 in0.0 mm
07:16 PM 14.3°F-9.8°C 7.3°F-13.7°C 73% 5.0 mph WSW8.0 kmh WSW 7.0 mph11.3 kmh 30.29 in1025.7 mb 0.00 in0.0 mm 0.00 in/hr0.0 mm/hr 0.00 in0.0 mm
07:31 PM 14.1°F-9.9°C 7.7°F-13.5°C 75% 9.0 mph WSW14.5 kmh WSW 10.0 mph16.1 kmh 30.30 in1026.1 mb 0.00 in0.0 mm 0.00 in/hr0.0 mm/hr 0.00 in0.0 mm
07:46 PM 13.7°F-10.2°C 9.2°F-12.7°C 82% 6.0 mph WSW9.7 kmh WSW 9.0 mph14.5 kmh 30.30 in1026.1 mb 0.00 in0.0 mm 0.00 in/hr0.0 mm/hr 0.00 in0.0 mm
08:02 PM 13.4°F-10.3°C 9.7°F-12.4°C 85% 5.0 mph WSW8.0 kmh WSW 9.0 mph14.5 kmh 30.30 in1026.1 mb 0.00 in0.0 mm 0.00 in/hr0.0 mm/hr 0.00 in0.0 mm
08:15 PM 13.4°F-10.3°C 10.5°F-11.9°C 88% 8.0 mph WSW12.9 kmh WSW 8.0 mph12.9 kmh 30.30 in1026.1 mb 0.00 in0.0 mm 0.00 in/hr0.0 mm/hr 0.00 in0.0 mm
08:31 PM 13.2°F-10.4°C 10.1°F-12.2°C 87% 5.0 mph WSW8.0 kmh WSW 8.0 mph12.9 kmh 30.29 in1025.7 mb 0.00 in0.0 mm 0.00 in/hr0.0 mm/hr 0.00 in0.0 mm
08:46 PM 13.1°F-10.5°C 10.0°F-12.2°C 87% 5.0 mph W8.0 kmh W 7.0 mph11.3 kmh 30.29 in1025.7 mb 0.00 in0.0 mm 0.00 in/hr0.0 mm/hr 0.00 in0.0 mm
09:02 PM 13.0°F-10.6°C 9.9°F-12.3°C 87% 1.0 mph WSW1.6 kmh WSW 5.0 mph8.0 kmh 30.28 in1025.4 mb 0.00 in0.0 mm 0.00 in/hr0.0 mm/hr 0.00 in0.0 mm
09:16 PM 13.0°F-10.6°C 9.9°F-12.3°C 87% 1.0 mph NW1.6 kmh NW 3.0 mph4.8 kmh 30.28 in1025.4 mb 0.00 in0.0 mm 0.00 in/hr0.0 mm/hr 0.00 in0.0 mm
09:30 PM 13.0°F-10.6°C 9.9°F-12.3°C 87% 1.0 mph WNW1.6 kmh WNW 3.0 mph4.8 kmh 30.26 in1024.7 mb 0.00 in0.0 mm 0.00 in/hr0.0 mm/hr 0.00 in0.0 mm
09:46 PM 13.1°F-10.5°C 10.0°F-12.2°C 87% 1.0 mph W1.6 kmh W 3.0 mph4.8 kmh 30.26 in1024.7 mb 0.00 in0.0 mm 0.00 in/hr0.0 mm/hr 0.00 in0.0 mm
10:16 PM 13.3°F-10.4°C 9.9°F-12.3°C 86% 2.0 mph WSW3.2 kmh WSW 4.0 mph6.4 kmh 30.25 in1024.4 mb 0.00 in0.0 mm 0.00 in/hr0.0 mm/hr 0.00 in0.0 mm
10:31 PM 13.5°F-10.3°C 10.1°F-12.2°C 86% 3.0 mph WSW4.8 kmh WSW 3.0 mph4.8 kmh 30.24 in1024.0 mb 0.00 in0.0 mm 0.00 in/hr0.0 mm/hr 0.00 in0.0 mm
10:45 PM 13.7°F-10.2°C 10.3°F-12.1°C 86% Calm Calm 4.0 mph6.4 kmh 30.24 in1024.0 mb 0.00 in0.0 mm 0.00 in/hr0.0 mm/hr 0.00 in0.0 mm
11:01 PM 13.4°F-10.3°C 9.7°F-12.4°C 85% 1.0 mph WNW1.6 kmh WNW 3.0 mph4.8 kmh 30.23 in1023.7 mb 0.00 in0.0 mm 0.00 in/hr0.0 mm/hr 0.00 in0.0 mm
11:16 PM 12.9°F-10.6°C 9.3°F-12.6°C 85% 1.0 mph NW1.6 kmh NW 2.0 mph3.2 kmh 30.23 in1023.7 mb 0.00 in0.0 mm 0.00 in/hr0.0 mm/hr 0.00 in0.0 mm
11:31 PM 12.4°F-10.9°C 9.0°F-12.8°C 86% 1.0 mph NW1.6 kmh NW 2.0 mph3.2 kmh 30.22 in1023.4 mb 0.00 in0.0 mm 0.00 in/hr0.0 mm/hr 0.00 in0.0 mm
11:45 PM 11.9°F-11.2°C 8.5°F-13.1°C 86% 1.0 mph NW1.6 kmh NW 2.0 mph3.2 kmh 30.22 in1023.4 mb 0.00 in0.0 mm 0.00 in/hr0.0 mm/hr 0.00 in0.0 mm